sensor_id;sensor_type;location;lat;lon;timestamp;temperature;humidity
2130;DHT22;1071;52.544;13.374;2023-12-14T00:00:48;7.30;99.90
2130;DHT22;1071;52.544;13.374;2023-12-14T00:03:18;7.40;99.90
2130;DHT22;1071;52.544;13.374;2023-12-14T00:05:47;7.40;99.90
2130;DHT22;1071;52.544;13.374;2023-12-14T00:08:14;7.40;99.90
2130;DHT22;1071;52.544;13.374;2023-12-14T00:10:41;7.40;99.90
2130;DHT22;1071;52.544;13.374;2023-12-14T00:13:08;7.40;99.90
2130;DHT22;1071;52.544;13.374;2023-12-14T00:15:35;7.40;99.90
2130;DHT22;1071;52.544;13.374;2023-12-14T00:18:02;7.40;99.90
2130;DHT22;1071;52.544;13.374;2023-12-14T00:20:30;7.30;99.90
2130;DHT22;1071;52.544;13.374;2023-12-14T00:22:58;7.30;99.90
2130;DHT22;1071;52.544;13.374;2023-12-14T00:25:25;7.30;99.90
2130;DHT22;1071;52.544;13.374;2023-12-14T00:27:52;7.30;99.90
2130;DHT22;1071;52.544;13.374;2023-12-14T00:30:19;7.20;99.90
2130;DHT22;1071;52.544;13.374;2023-12-14T00:32:46;7.20;99.90
2130;DHT22;1071;52.544;13.374;2023-12-14T00:35:14;7.30;99.90
2130;DHT22;1071;52.544;13.374;2023-12-14T00:37:41;7.30;99.90
2130;DHT22;1071;52.544;13.374;2023-12-14T00:40:10;7.30;99.90
2130;DHT22;1071;52.544;13.374;2023-12-14T00:42:37;7.30;99.90
2130;DHT22;1071;52.544;13.374;2023-12-14T00:45:05;7.20;99.90
2130;DHT22;1071;52.544;13.374;2023-12-14T00:47:32;7.20;99.90
2130;DHT22;1071;52.544;13.374;2023-12-14T00:49:59;7.20;99.90
2130;DHT22;1071;52.544;13.374;2023-12-14T00:52:27;7.20;99.90
2130;DHT22;1071;52.544;13.374;2023-12-14T00:54:54;7.20;99.90
2130;DHT22;1071;52.544;13.374;2023-12-14T00:57:22;7.20;99.90
2130;DHT22;1071;52.544;13.374;2023-12-14T00:59:49;7.20;99.90
2130;DHT22;1071;52.544;13.374;2023-12-14T01:02:16;7.10;99.90
2130;DHT22;1071;52.544;13.374;2023-12-14T01:04:43;7.10;99.90
2130;DHT22;1071;52.544;13.374;2023-12-14T01:07:10;7.10;99.90
2130;DHT22;1071;52.544;13.374;2023-12-14T01:09:37;7.10;99.90
2130;DHT22;1071;52.544;13.374;2023-12-14T01:12:04;7.10;99.90
2130;DHT22;1071;52.544;13.374;2023-12-14T01:14:33;7.10;99.90
2130;DHT22;1071;52.544;13.374;2023-12-14T01:17:00;7.10;99.90
2130;DHT22;1071;52.544;13.374;2023-12-14T01:19:27;7.10;99.90
2130;DHT22;1071;52.544;13.374;2023-12-14T01:21:54;7.10;99.90
2130;DHT22;1071;52.544;13.374;2023-12-14T01:24:21;7.10;99.90
2130;DHT22;1071;52.544;13.374;2023-12-14T01:26:48;7.10;99.90
2130;DHT22;1071;52.544;13.374;2023-12-14T01:29:18;7.00;99.90
2130;DHT22;1071;52.544;13.374;2023-12-14T01:31:47;7.00;99.90
2130;DHT22;1071;52.544;13.374;2023-12-14T01:34:14;7.00;99.90
2130;DHT22;1071;52.544;13.374;2023-12-14T01:36:41;7.00;99.90
2130;DHT22;1071;52.544;13.374;2023-12-14T01:39:08;7.00;99.90
2130;DHT22;1071;52.544;13.374;2023-12-14T01:41:35;7.00;99.90
2130;DHT22;1071;52.544;13.374;2023-12-14T01:44:02;6.90;99.90
2130;DHT22;1071;52.544;13.374;2023-12-14T01:46:29;6.90;99.90
2130;DHT22;1071;52.544;13.374;2023-12-14T01:48:57;6.90;99.90
2130;DHT22;1071;52.544;13.374;2023-12-14T01:51:24;6.90;99.90
2130;DHT22;1071;52.544;13.374;2023-12-14T01:53:52;6.90;99.90
2130;DHT22;1071;52.544;13.374;2023-12-14T01:56:19;6.90;99.90
2130;DHT22;1071;52.544;13.374;2023-12-14T01:58:46;6.90;99.90
2130;DHT22;1071;52.544;13.374;2023-12-14T02:01:18;6.90;99.90
2130;DHT22;1071;52.544;13.374;2023-12-14T02:03:49;6.80;99.90
2130;DHT22;1071;52.544;13.374;2023-12-14T02:06:18;6.90;99.90
2130;DHT22;1071;52.544;13.374;2023-12-14T02:08:45;6.80;99.90
2130;DHT22;1071;52.544;13.374;2023-12-14T02:11:12;6.80;99.90
2130;DHT22;1071;52.544;13.374;2023-12-14T02:13:39;6.80;99.90
2130;DHT22;1071;52.544;13.374;2023-12-14T02:16:06;6.80;99.90
2130;DHT22;1071;52.544;13.374;2023-12-14T02:18:34;6.80;99.90
2130;DHT22;1071;52.544;13.374;2023-12-14T02:21:01;6.70;99.90
2130;DHT22;1071;52.544;13.374;2023-12-14T02:23:30;6.70;99.90
2130;DHT22;1071;52.544;13.374;2023-12-14T02:25:57;6.70;99.90
2130;DHT22;1071;52.544;13.374;2023-12-14T02:28:24;6.70;99.90
2130;DHT22;1071;52.544;13.374;2023-12-14T02:30:51;6.70;99.90
2130;DHT22;1071;52.544;13.374;2023-12-14T02:33:18;6.70;99.90
2130;DHT22;1071;52.544;13.374;2023-12-14T02:35:45;6.70;99.90
2130;DHT22;1071;52.544;13.374;2023-12-14T02:38:12;6.70;99.90
2130;DHT22;1071;52.544;13.374;2023-12-14T02:40:40;6.70;99.90
2130;DHT22;1071;52.544;13.374;2023-12-14T02:43:07;6.70;99.90
2130;DHT22;1071;52.544;13.374;2023-12-14T02:45:34;6.70;99.90
2130;DHT22;1071;52.544;13.374;2023-12-14T02:48:01;6.70;99.90
2130;DHT22;1071;52.544;13.374;2023-12-14T02:50:28;6.70;99.90
2130;DHT22;1071;52.544;13.374;2023-12-14T02:52:55;6.70;99.90
2130;DHT22;1071;52.544;13.374;2023-12-14T02:55:22;6.70;99.90
2130;DHT22;1071;52.544;13.374;2023-12-14T02:57:51;6.70;99.90
2130;DHT22;1071;52.544;13.374;2023-12-14T03:00:18;6.70;99.90
2130;DHT22;1071;52.544;13.374;2023-12-14T03:02:45;6.70;99.90
2130;DHT22;1071;52.544;13.374;2023-12-14T03:05:12;6.80;99.90
2130;DHT22;1071;52.544;13.374;2023-12-14T03:07:39;6.80;99.90
2130;DHT22;1071;52.544;13.374;2023-12-14T03:10:07;6.80;99.90
2130;DHT22;1071;52.544;13.374;2023-12-14T03:12:35;6.70;99.90
2130;DHT22;1071;52.544;13.374;2023-12-14T03:15:04;6.70;99.90
2130;DHT22;1071;52.544;13.374;2023-12-14T03:17:31;6.70;99.90
2130;DHT22;1071;52.544;13.374;2023-12-14T03:19:58;6.70;99.90
2130;DHT22;1071;52.544;13.374;2023-12-14T03:22:25;6.70;99.90
2130;DHT22;1071;52.544;13.374;2023-12-14T03:24:52;6.70;99.90
2130;DHT22;1071;52.544;13.374;2023-12-14T03:27:19;6.70;99.90
2130;DHT22;1071;52.544;13.374;2023-12-14T03:29:48;6.70;99.90
2130;DHT22;1071;52.544;13.374;2023-12-14T03:32:16;6.70;99.90
2130;DHT22;1071;52.544;13.374;2023-12-14T03:34:43;6.70;99.90
2130;DHT22;1071;52.544;13.374;2023-12-14T03:37:10;6.80;99.90
2130;DHT22;1071;52.544;13.374;2023-12-14T03:39:37;6.80;99.90
2130;DHT22;1071;52.544;13.374;2023-12-14T03:42:04;6.80;99.90
2130;DHT22;1071;52.544;13.374;2023-12-14T03:44:31;6.70;99.90
2130;DHT22;1071;52.544;13.374;2023-12-14T03:46:59;6.70;99.90
2130;DHT22;1071;52.544;13.374;2023-12-14T03:49:27;6.80;99.90
2130;DHT22;1071;52.544;13.374;2023-12-14T03:51:54;6.80;99.90
2130;DHT22;1071;52.544;13.374;2023-12-14T03:54:22;6.80;99.90
2130;DHT22;1071;52.544;13.374;2023-12-14T03:56:49;6.80;99.90
2130;DHT22;1071;52.544;13.374;2023-12-14T03:59:16;6.80;99.90
2130;DHT22;1071;52.544;13.374;2023-12-14T04:01:43;6.80;99.90
2130;DHT22;1071;52.544;13.374;2023-12-14T04:04:10;6.80;99.90
2130;DHT22;1071;52.544;13.374;2023-12-14T04:06:38;6.80;99.90
2130;DHT22;1071;52.544;13.374;2023-12-14T04:09:05;6.90;99.90
2130;DHT22;1071;52.544;13.374;2023-12-14T04:11:32;6.80;99.90
2130;DHT22;1071;52.544;13.374;2023-12-14T04:13:59;6.80;99.90
2130;DHT22;1071;52.544;13.374;2023-12-14T04:16:26;6.80;99.90
2130;DHT22;1071;52.544;13.374;2023-12-14T04:18:53;6.80;99.90
2130;DHT22;1071;52.544;13.374;2023-12-14T04:21:21;6.80;99.90
2130;DHT22;1071;52.544;13.374;2023-12-14T04:23:50;6.80;99.90
2130;DHT22;1071;52.544;13.374;2023-12-14T04:26:17;6.80;99.90
2130;DHT22;1071;52.544;13.374;2023-12-14T04:28:44;6.80;99.90
2130;DHT22;1071;52.544;13.374;2023-12-14T04:31:11;6.80;99.90
2130;DHT22;1071;52.544;13.374;2023-12-14T04:33:38;6.80;99.90
2130;DHT22;1071;52.544;13.374;2023-12-14T04:36:06;6.80;99.90
2130;DHT22;1071;52.544;13.374;2023-12-14T04:38:33;6.80;99.90
2130;DHT22;1071;52.544;13.374;2023-12-14T04:41:01;6.80;99.90
2130;DHT22;1071;52.544;13.374;2023-12-14T04:43:28;6.70;99.90
2130;DHT22;1071;52.544;13.374;2023-12-14T04:45:59;6.80;99.90
2130;DHT22;1071;52.544;13.374;2023-12-14T04:48:26;6.80;99.90
2130;DHT22;1071;52.544;13.374;2023-12-14T04:50:53;6.80;99.90
2130;DHT22;1071;52.544;13.374;2023-12-14T04:53:20;6.80;99.90
2130;DHT22;1071;52.544;13.374;2023-12-14T04:55:54;6.80;99.90
2130;DHT22;1071;52.544;13.374;2023-12-14T04:58:22;6.80;99.90
2130;DHT22;1071;52.544;13.374;2023-12-14T05:00:49;6.80;99.90
2130;DHT22;1071;52.544;13.374;2023-12-14T05:03:16;6.80;99.90
2130;DHT22;1071;52.544;13.374;2023-12-14T05:05:43;6.80;99.90
2130;DHT22;1071;52.544;13.374;2023-12-14T05:08:16;6.80;99.90
2130;DHT22;1071;52.544;13.374;2023-12-14T05:10:44;6.80;99.90
2130;DHT22;1071;52.544;13.374;2023-12-14T05:13:12;6.70;99.90
2130;DHT22;1071;52.544;13.374;2023-12-14T05:15:40;6.80;99.90
2130;DHT22;1071;52.544;13.374;2023-12-14T05:18:08;6.80;99.90
2130;DHT22;1071;52.544;13.374;2023-12-14T05:20:35;6.80;99.90
2130;DHT22;1071;52.544;13.374;2023-12-14T05:23:02;6.80;99.90
2130;DHT22;1071;52.544;13.374;2023-12-14T05:25:29;6.80;99.90
2130;DHT22;1071;52.544;13.374;2023-12-14T05:27:56;6.80;99.90
2130;DHT22;1071;52.544;13.374;2023-12-14T05:30:23;6.90;99.90
2130;DHT22;1071;52.544;13.374;2023-12-14T05:32:51;6.80;99.90
2130;DHT22;1071;52.544;13.374;2023-12-14T05:35:19;6.80;99.90
2130;DHT22;1071;52.544;13.374;2023-12-14T05:37:46;6.80;99.90
2130;DHT22;1071;52.544;13.374;2023-12-14T05:40:14;6.80;99.90
2130;DHT22;1071;52.544;13.374;2023-12-14T05:42:41;6.80;99.90
2130;DHT22;1071;52.544;13.374;2023-12-14T05:45:08;6.80;99.90
2130;DHT22;1071;52.544;13.374;2023-12-14T05:47:35;6.80;99.90
2130;DHT22;1071;52.544;13.374;2023-12-14T05:50:05;6.90;99.90
2130;DHT22;1071;52.544;13.374;2023-12-14T05:52:35;6.90;99.90
2130;DHT22;1071;52.544;13.374;2023-12-14T05:55:08;6.90;99.90
2130;DHT22;1071;52.544;13.374;2023-12-14T05:57:36;6.90;99.90
2130;DHT22;1071;52.544;13.374;2023-12-14T06:00:04;6.90;99.90
2130;DHT22;1071;52.544;13.374;2023-12-14T06:02:32;7.00;99.90
2130;DHT22;1071;52.544;13.374;2023-12-14T06:05:01;7.00;99.90
2130;DHT22;1071;52.544;13.374;2023-12-14T06:07:31;7.00;99.90
2130;DHT22;1071;52.544;13.374;2023-12-14T06:09:59;7.00;99.90
2130;DHT22;1071;52.544;13.374;2023-12-14T06:12:30;6.90;99.90
2130;DHT22;1071;52.544;13.374;2023-12-14T06:14:57;7.00;99.90
2130;DHT22;1071;52.544;13.374;2023-12-14T06:17:24;7.00;99.90
2130;DHT22;1071;52.544;13.374;2023-12-14T06:19:54;7.00;99.90
2130;DHT22;1071;52.544;13.374;2023-12-14T06:22:21;7.00;99.90
2130;DHT22;1071;52.544;13.374;2023-12-14T06:24:49;6.90;99.90
2130;DHT22;1071;52.544;13.374;2023-12-14T06:27:16;6.90;99.90
2130;DHT22;1071;52.544;13.374;2023-12-14T06:29:43;7.00;99.90
2130;DHT22;1071;52.544;13.374;2023-12-14T06:32:10;7.00;99.90
2130;DHT22;1071;52.544;13.374;2023-12-14T06:34:37;7.00;99.90
2130;DHT22;1071;52.544;13.374;2023-12-14T06:37:04;7.00;99.90
2130;DHT22;1071;52.544;13.374;2023-12-14T06:39:31;7.00;99.90
2130;DHT22;1071;52.544;13.374;2023-12-14T06:42:00;7.00;99.90
2130;DHT22;1071;52.544;13.374;2023-12-14T06:44:27;7.00;99.90
2130;DHT22;1071;52.544;13.374;2023-12-14T06:46:59;7.00;99.90
2130;DHT22;1071;52.544;13.374;2023-12-14T06:49:26;7.00;99.90
2130;DHT22;1071;52.544;13.374;2023-12-14T06:51:53;7.00;99.90
2130;DHT22;1071;52.544;13.374;2023-12-14T06:54:20;7.00;99.90
2130;DHT22;1071;52.544;13.374;2023-12-14T06:56:53;7.00;99.90
2130;DHT22;1071;52.544;13.374;2023-12-14T06:59:21;7.00;99.90
2130;DHT22;1071;52.544;13.374;2023-12-14T07:01:48;7.00;99.90
2130;DHT22;1071;52.544;13.374;2023-12-14T07:04:15;7.00;99.90
2130;DHT22;1071;52.544;13.374;2023-12-14T07:06:50;7.00;99.90
2130;DHT22;1071;52.544;13.374;2023-12-14T07:09:17;7.00;99.90
2130;DHT22;1071;52.544;13.374;2023-12-14T07:11:44;7.00;99.90
2130;DHT22;1071;52.544;13.374;2023-12-14T07:14:12;7.00;99.90
2130;DHT22;1071;52.544;13.374;2023-12-14T07:16:41;7.00;99.90
2130;DHT22;1071;52.544;13.374;2023-12-14T07:19:08;7.00;99.90
2130;DHT22;1071;52.544;13.374;2023-12-14T07:21:36;7.00;99.90
2130;DHT22;1071;52.544;13.374;2023-12-14T07:24:03;7.00;99.90
2130;DHT22;1071;52.544;13.374;2023-12-14T07:26:30;7.00;99.90
2130;DHT22;1071;52.544;13.374;2023-12-14T07:29:00;7.00;99.90
2130;DHT22;1071;52.544;13.374;2023-12-14T07:31:27;7.00;99.90
2130;DHT22;1071;52.544;13.374;2023-12-14T07:33:56;7.00;99.90
2130;DHT22;1071;52.544;13.374;2023-12-14T07:36:24;7.00;99.90
2130;DHT22;1071;52.544;13.374;2023-12-14T07:38:51;7.10;99.90
2130;DHT22;1071;52.544;13.374;2023-12-14T07:41:19;7.00;99.90
2130;DHT22;1071;52.544;13.374;2023-12-14T07:43:48;7.10;99.90
2130;DHT22;1071;52.544;13.374;2023-12-14T07:46:15;7.10;99.90
2130;DHT22;1071;52.544;13.374;2023-12-14T07:48:42;7.10;99.90
2130;DHT22;1071;52.544;13.374;2023-12-14T07:51:11;7.10;99.90
2130;DHT22;1071;52.544;13.374;2023-12-14T07:53:38;7.10;99.90
2130;DHT22;1071;52.544;13.374;2023-12-14T07:56:07;7.10;99.90
2130;DHT22;1071;52.544;13.374;2023-12-14T07:58:34;7.10;99.90
2130;DHT22;1071;52.544;13.374;2023-12-14T08:01:01;7.10;99.90
2130;DHT22;1071;52.544;13.374;2023-12-14T08:03:28;7.10;99.90
2130;DHT22;1071;52.544;13.374;2023-12-14T08:05:54;7.10;99.90
2130;DHT22;1071;52.544;13.374;2023-12-14T08:08:23;7.10;99.90
2130;DHT22;1071;52.544;13.374;2023-12-14T08:10:50;7.10;99.90
2130;DHT22;1071;52.544;13.374;2023-12-14T08:13:17;7.00;99.90
2130;DHT22;1071;52.544;13.374;2023-12-14T08:15:45;7.00;99.90
2130;DHT22;1071;52.544;13.374;2023-12-14T08:18:12;7.00;99.90
2130;DHT22;1071;52.544;13.374;2023-12-14T08:20:39;7.00;99.90
2130;DHT22;1071;52.544;13.374;2023-12-14T08:23:06;7.10;99.90
2130;DHT22;1071;52.544;13.374;2023-12-14T08:25:34;7.10;99.90
2130;DHT22;1071;52.544;13.374;2023-12-14T08:28:02;7.10;99.90
2130;DHT22;1071;52.544;13.374;2023-12-14T08:30:30;7.10;99.90
2130;DHT22;1071;52.544;13.374;2023-12-14T08:32:57;7.10;99.90
2130;DHT22;1071;52.544;13.374;2023-12-14T08:35:24;7.10;99.90
2130;DHT22;1071;52.544;13.374;2023-12-14T08:37:51;7.20;99.90
2130;DHT22;1071;52.544;13.374;2023-12-14T08:40:18;7.20;99.90
2130;DHT22;1071;52.544;13.374;2023-12-14T08:42:48;7.20;99.90
2130;DHT22;1071;52.544;13.374;2023-12-14T08:45:15;7.20;99.90
2130;DHT22;1071;52.544;13.374;2023-12-14T08:47:42;7.20;99.90
2130;DHT22;1071;52.544;13.374;2023-12-14T08:50:09;7.20;99.90
2130;DHT22;1071;52.544;13.374;2023-12-14T08:52:36;7.20;99.90
2130;DHT22;1071;52.544;13.374;2023-12-14T08:55:04;7.10;99.90
2130;DHT22;1071;52.544;13.374;2023-12-14T08:57:31;7.10;99.90
2130;DHT22;1071;52.544;13.374;2023-12-14T09:00:00;7.10;99.90
2130;DHT22;1071;52.544;13.374;2023-12-14T09:02:30;7.20;99.90
2130;DHT22;1071;52.544;13.374;2023-12-14T09:04:57;7.20;99.90
2130;DHT22;1071;52.544;13.374;2023-12-14T09:07:24;7.20;99.90
2130;DHT22;1071;52.544;13.374;2023-12-14T09:09:51;7.20;99.90
2130;DHT22;1071;52.544;13.374;2023-12-14T09:12:18;7.30;99.90
2130;DHT22;1071;52.544;13.374;2023-12-14T09:14:45;7.30;99.90
2130;DHT22;1071;52.544;13.374;2023-12-14T09:17:14;7.30;99.90
2130;DHT22;1071;52.544;13.374;2023-12-14T09:19:41;7.20;99.90
2130;DHT22;1071;52.544;13.374;2023-12-14T09:22:08;7.30;99.90
2130;DHT22;1071;52.544;13.374;2023-12-14T09:24:35;7.30;99.90
2130;DHT22;1071;52.544;13.374;2023-12-14T09:27:02;7.30;99.90
2130;DHT22;1071;52.544;13.374;2023-12-14T09:29:37;7.30;99.90
2130;DHT22;1071;52.544;13.374;2023-12-14T09:32:04;7.30;99.90
2130;DHT22;1071;52.544;13.374;2023-12-14T09:34:33;7.30;99.90
2130;DHT22;1071;52.544;13.374;2023-12-14T09:37:00;7.30;99.90
2130;DHT22;1071;52.544;13.374;2023-12-14T09:39:27;7.30;99.90
2130;DHT22;1071;52.544;13.374;2023-12-14T09:42:01;7.30;99.90
2130;DHT22;1071;52.544;13.374;2023-12-14T09:44:29;7.30;99.90
2130;DHT22;1071;52.544;13.374;2023-12-14T09:46:59;7.30;99.90
2130;DHT22;1071;52.544;13.374;2023-12-14T09:49:26;7.30;99.90
2130;DHT22;1071;52.544;13.374;2023-12-14T09:51:56;7.30;99.90
2130;DHT22;1071;52.544;13.374;2023-12-14T09:54:23;7.30;99.90
2130;DHT22;1071;52.544;13.374;2023-12-14T09:56:50;7.20;99.90
2130;DHT22;1071;52.544;13.374;2023-12-14T09:59:18;7.30;99.90
2130;DHT22;1071;52.544;13.374;2023-12-14T10:01:45;7.20;99.90
2130;DHT22;1071;52.544;13.374;2023-12-14T10:04:14;7.20;99.90
2130;DHT22;1071;52.544;13.374;2023-12-14T10:06:43;7.20;99.90
2130;DHT22;1071;52.544;13.374;2023-12-14T10:09:12;7.20;99.90
2130;DHT22;1071;52.544;13.374;2023-12-14T10:11:41;7.20;99.90
2130;DHT22;1071;52.544;13.374;2023-12-14T10:14:19;7.20;99.90
2130;DHT22;1071;52.544;13.374;2023-12-14T10:16:48;7.20;99.90
2130;DHT22;1071;52.544;13.374;2023-12-14T10:19:16;7.20;99.90
2130;DHT22;1071;52.544;13.374;2023-12-14T10:21:44;7.20;99.90
2130;DHT22;1071;52.544;13.374;2023-12-14T10:24:14;7.20;99.90
2130;DHT22;1071;52.544;13.374;2023-12-14T10:26:42;7.20;99.90
2130;DHT22;1071;52.544;13.374;2023-12-14T10:29:11;7.20;99.90
2130;DHT22;1071;52.544;13.374;2023-12-14T10:31:39;7.20;99.90
2130;DHT22;1071;52.544;13.374;2023-12-14T10:34:06;7.30;99.90
2130;DHT22;1071;52.544;13.374;2023-12-14T10:36:33;7.20;99.90
2130;DHT22;1071;52.544;13.374;2023-12-14T10:39:01;7.30;99.90
2130;DHT22;1071;52.544;13.374;2023-12-14T10:41:33;7.30;99.90
2130;DHT22;1071;52.544;13.374;2023-12-14T10:44:00;7.30;99.90
2130;DHT22;1071;52.544;13.374;2023-12-14T10:46:28;7.30;99.90
2130;DHT22;1071;52.544;13.374;2023-12-14T10:48:55;7.30;99.90
2130;DHT22;1071;52.544;13.374;2023-12-14T10:51:24;7.30;99.90
2130;DHT22;1071;52.544;13.374;2023-12-14T10:53:53;7.30;99.90
2130;DHT22;1071;52.544;13.374;2023-12-14T10:56:22;7.20;99.90
2130;DHT22;1071;52.544;13.374;2023-12-14T10:58:53;7.30;99.90
2130;DHT22;1071;52.544;13.374;2023-12-14T11:01:21;7.30;99.90
2130;DHT22;1071;52.544;13.374;2023-12-14T11:03:50;7.30;99.90
2130;DHT22;1071;52.544;13.374;2023-12-14T11:06:26;7.40;99.90
2130;DHT22;1071;52.544;13.374;2023-12-14T11:08:58;7.40;99.90
2130;DHT22;1071;52.544;13.374;2023-12-14T11:11:28;7.40;99.90
2130;DHT22;1071;52.544;13.374;2023-12-14T11:13:57;7.30;99.90
2130;DHT22;1071;52.544;13.374;2023-12-14T11:16:26;7.30;99.90
2130;DHT22;1071;52.544;13.374;2023-12-14T11:19:24;7.30;99.90
2130;DHT22;1071;52.544;13.374;2023-12-14T11:22:09;7.30;99.90
2130;DHT22;1071;52.544;13.374;2023-12-14T11:24:41;7.30;99.90
2130;DHT22;1071;52.544;13.374;2023-12-14T11:27:12;7.30;99.90
2130;DHT22;1071;52.544;13.374;2023-12-14T11:29:42;7.30;99.90
2130;DHT22;1071;52.544;13.374;2023-12-14T11:32:12;7.30;99.90
2130;DHT22;1071;52.544;13.374;2023-12-14T11:34:39;7.30;99.90
2130;DHT22;1071;52.544;13.374;2023-12-14T11:37:06;7.30;99.90
2130;DHT22;1071;52.544;13.374;2023-12-14T11:39:33;7.30;99.90
2130;DHT22;1071;52.544;13.374;2023-12-14T11:42:02;7.30;99.90
2130;DHT22;1071;52.544;13.374;2023-12-14T11:44:29;7.30;99.90
2130;DHT22;1071;52.544;13.374;2023-12-14T11:46:58;7.40;99.90
2130;DHT22;1071;52.544;13.374;2023-12-14T11:49:25;7.40;99.90
2130;DHT22;1071;52.544;13.374;2023-12-14T11:51:54;7.40;99.90
2130;DHT22;1071;52.544;13.374;2023-12-14T11:54:21;7.40;99.90
2130;DHT22;1071;52.544;13.374;2023-12-14T11:56:55;7.50;99.90
2130;DHT22;1071;52.544;13.374;2023-12-14T11:59:22;7.50;99.90
2130;DHT22;1071;52.544;13.374;2023-12-14T12:01:58;7.50;99.90
2130;DHT22;1071;52.544;13.374;2023-12-14T12:04:27;7.50;99.90
2130;DHT22;1071;52.544;13.374;2023-12-14T12:07:03;7.50;99.90
2130;DHT22;1071;52.544;13.374;2023-12-14T12:09:35;7.50;99.90
2130;DHT22;1071;52.544;13.374;2023-12-14T12:12:05;7.50;99.90
2130;DHT22;1071;52.544;13.374;2023-12-14T12:14:33;7.50;99.90
2130;DHT22;1071;52.544;13.374;2023-12-14T12:17:00;7.50;99.90
2130;DHT22;1071;52.544;13.374;2023-12-14T12:19:27;7.50;99.90
2130;DHT22;1071;52.544;13.374;2023-12-14T12:21:54;7.50;99.90
2130;DHT22;1071;52.544;13.374;2023-12-14T12:24:21;7.50;99.90
2130;DHT22;1071;52.544;13.374;2023-12-14T12:26:48;7.50;99.90
2130;DHT22;1071;52.544;13.374;2023-12-14T12:29:15;7.50;99.90
2130;DHT22;1071;52.544;13.374;2023-12-14T12:31:42;7.50;99.90
2130;DHT22;1071;52.544;13.374;2023-12-14T12:34:12;7.60;99.90
2130;DHT22;1071;52.544;13.374;2023-12-14T12:36:39;7.60;99.90
2130;DHT22;1071;52.544;13.374;2023-12-14T12:39:06;7.60;99.90
2130;DHT22;1071;52.544;13.374;2023-12-14T12:41:50;7.60;99.90
2130;DHT22;1071;52.544;13.374;2023-12-14T12:44:17;7.60;99.90
2130;DHT22;1071;52.544;13.374;2023-12-14T12:46:43;7.60;99.90
2130;DHT22;1071;52.544;13.374;2023-12-14T12:49:12;7.60;99.90
2130;DHT22;1071;52.544;13.374;2023-12-14T12:51:39;7.60;99.90
2130;DHT22;1071;52.544;13.374;2023-12-14T12:54:06;7.50;99.90
2130;DHT22;1071;52.544;13.374;2023-12-14T12:56:33;7.50;99.90
2130;DHT22;1071;52.544;13.374;2023-12-14T12:59:00;7.50;99.90
2130;DHT22;1071;52.544;13.374;2023-12-14T13:04:50;7.60;99.90
2130;DHT22;1071;52.544;13.374;2023-12-14T13:07:17;7.60;99.90
2130;DHT22;1071;52.544;13.374;2023-12-14T13:09:44;7.60;99.90
2130;DHT22;1071;52.544;13.374;2023-12-14T13:12:11;7.50;99.90
2130;DHT22;1071;52.544;13.374;2023-12-14T13:14:38;7.50;99.90
2130;DHT22;1071;52.544;13.374;2023-12-14T13:17:10;7.50;99.90
2130;DHT22;1071;52.544;13.374;2023-12-14T13:19:37;7.50;99.90
2130;DHT22;1071;52.544;13.374;2023-12-14T13:22:05;7.50;99.90
2130;DHT22;1071;52.544;13.374;2023-12-14T13:24:33;7.50;99.90
2130;DHT22;1071;52.544;13.374;2023-12-14T13:27:00;7.50;99.90
2130;DHT22;1071;52.544;13.374;2023-12-14T13:29:27;7.40;99.90
2130;DHT22;1071;52.544;13.374;2023-12-14T13:31:56;7.40;99.90
2130;DHT22;1071;52.544;13.374;2023-12-14T13:34:27;7.50;99.90
2130;DHT22;1071;52.544;13.374;2023-12-14T13:37:03;7.40;99.90
2130;DHT22;1071;52.544;13.374;2023-12-14T13:39:32;7.40;99.90
2130;DHT22;1071;52.544;13.374;2023-12-14T13:42:03;7.40;99.90
2130;DHT22;1071;52.544;13.374;2023-12-14T13:44:30;7.40;99.90
2130;DHT22;1071;52.544;13.374;2023-12-14T13:47:00;7.40;99.90
2130;DHT22;1071;52.544;13.374;2023-12-14T13:49:27;7.40;99.90
2130;DHT22;1071;52.544;13.374;2023-12-14T13:51:54;7.40;99.90
2130;DHT22;1071;52.544;13.374;2023-12-14T13:54:21;7.30;99.90
2130;DHT22;1071;52.544;13.374;2023-12-14T13:56:49;7.30;99.90
2130;DHT22;1071;52.544;13.374;2023-12-14T13:59:16;7.30;99.90
2130;DHT22;1071;52.544;13.374;2023-12-14T14:01:44;7.30;99.90
2130;DHT22;1071;52.544;13.374;2023-12-14T14:04:11;7.20;99.90
2130;DHT22;1071;52.544;13.374;2023-12-14T14:06:38;7.30;99.90
2130;DHT22;1071;52.544;13.374;2023-12-14T14:09:05;7.30;99.90
2130;DHT22;1071;52.544;13.374;2023-12-14T14:11:32;7.30;99.90
2130;DHT22;1071;52.544;13.374;2023-12-14T14:14:01;7.20;99.90
2130;DHT22;1071;52.544;13.374;2023-12-14T14:16:29;7.20;99.90
2130;DHT22;1071;52.544;13.374;2023-12-14T14:18:56;7.20;99.90
2130;DHT22;1071;52.544;13.374;2023-12-14T14:21:24;7.20;99.90
2130;DHT22;1071;52.544;13.374;2023-12-14T14:23:51;7.30;99.90
2130;DHT22;1071;52.544;13.374;2023-12-14T14:26:18;7.20;99.90
2130;DHT22;1071;52.544;13.374;2023-12-14T14:28:54;7.30;99.90
2130;DHT22;1071;52.544;13.374;2023-12-14T14:31:27;7.30;99.90
2130;DHT22;1071;52.544;13.374;2023-12-14T14:33:57;7.40;99.90
2130;DHT22;1071;52.544;13.374;2023-12-14T14:36:24;7.40;99.90
2130;DHT22;1071;52.544;13.374;2023-12-14T14:38:52;7.40;99.90
2130;DHT22;1071;52.544;13.374;2023-12-14T14:41:20;7.40;99.90
2130;DHT22;1071;52.544;13.374;2023-12-14T14:43:48;7.50;99.90
2130;DHT22;1071;52.544;13.374;2023-12-14T14:46:15;7.60;99.90
2130;DHT22;1071;52.544;13.374;2023-12-14T14:48:43;7.60;99.90
2130;DHT22;1071;52.544;13.374;2023-12-14T14:51:10;7.70;99.90
2130;DHT22;1071;52.544;13.374;2023-12-14T14:53:37;7.70;99.90
2130;DHT22;1071;52.544;13.374;2023-12-14T14:56:08;7.70;99.90
2130;DHT22;1071;52.544;13.374;2023-12-14T14:58:36;7.80;99.90
2130;DHT22;1071;52.544;13.374;2023-12-14T15:01:03;7.80;99.90
2130;DHT22;1071;52.544;13.374;2023-12-14T15:03:30;7.80;99.90
2130;DHT22;1071;52.544;13.374;2023-12-14T15:05:58;7.90;99.90
2130;DHT22;1071;52.544;13.374;2023-12-14T15:08:25;7.90;99.90
2130;DHT22;1071;52.544;13.374;2023-12-14T15:10:52;7.90;99.90
2130;DHT22;1071;52.544;13.374;2023-12-14T15:13:21;7.90;99.90
2130;DHT22;1071;52.544;13.374;2023-12-14T15:15:48;7.90;99.90
2130;DHT22;1071;52.544;13.374;2023-12-14T15:18:15;7.90;99.90
2130;DHT22;1071;52.544;13.374;2023-12-14T15:20:42;8.00;99.90
2130;DHT22;1071;52.544;13.374;2023-12-14T15:23:16;7.90;99.90
2130;DHT22;1071;52.544;13.374;2023-12-14T15:25:43;8.00;99.90
2130;DHT22;1071;52.544;13.374;2023-12-14T15:28:10;8.00;99.90
2130;DHT22;1071;52.544;13.374;2023-12-14T15:30:42;8.00;99.90
2130;DHT22;1071;52.544;13.374;2023-12-14T15:33:12;8.00;99.90
2130;DHT22;1071;52.544;13.374;2023-12-14T15:35:39;7.90;99.90
2130;DHT22;1071;52.544;13.374;2023-12-14T15:38:06;7.90;99.90
2130;DHT22;1071;52.544;13.374;2023-12-14T15:40:35;7.90;99.90
2130;DHT22;1071;52.544;13.374;2023-12-14T15:43:03;7.90;99.90
2130;DHT22;1071;52.544;13.374;2023-12-14T15:45:30;7.90;99.90
2130;DHT22;1071;52.544;13.374;2023-12-14T15:48:00;7.90;99.90
2130;DHT22;1071;52.544;13.374;2023-12-14T15:50:30;7.90;99.90
2130;DHT22;1071;52.544;13.374;2023-12-14T15:52:57;7.90;99.90
2130;DHT22;1071;52.544;13.374;2023-12-14T15:55:24;7.90;99.90
2130;DHT22;1071;52.544;13.374;2023-12-14T15:57:53;7.90;99.90
2130;DHT22;1071;52.544;13.374;2023-12-14T16:00:21;7.90;99.90
2130;DHT22;1071;52.544;13.374;2023-12-14T16:02:48;7.90;99.90
2130;DHT22;1071;52.544;13.374;2023-12-14T16:05:15;7.90;99.90
2130;DHT22;1071;52.544;13.374;2023-12-14T16:07:42;7.90;99.90
2130;DHT22;1071;52.544;13.374;2023-12-14T16:10:09;7.90;99.90